Time;durP1;ratioP1;P1;durP2;ratioP2;P2;SDS_P1;SDS_P2;PMS_P1;PMS_P2;Temp;Humidity;BMP_temperature;BMP_pressure;BME280_temperature;BME280_humidity;BME280_pressure;Samples;Min_cycle;Max_cycle;Signal;HPM_P1;HPM_P2
2022/06/29 00:02:43;;;;;;;4.80;1.20;;;14.90;99.90;;;;;;7341181;32;20206;-62
2022/06/29 00:06:45;;;;;;;2.33;1.10;;;14.90;99.90;;;;;;7338345;32;20104;-61
2022/06/29 00:10:47;;;;;;;5.68;1.30;;;14.80;99.90;;;;;;7340867;32;20158;-61
2022/06/29 00:14:49;;;;;;;1.40;0.90;;;14.80;99.90;;;;;;7343070;32;20222;-62
2022/06/29 00:18:52;;;;;;;2.00;1.02;;;14.80;99.90;;;;;;7339899;32;20609;-61
2022/06/29 00:22:54;;;;;;;5.25;1.12;;;14.70;99.90;;;;;;7343030;32;20533;-61
2022/06/29 00:26:56;;;;;;;2.83;1.05;;;14.70;99.90;;;;;;7344900;32;20457;-61
2022/06/29 00:30:57;;;;;;;2.70;1.10;;;14.70;99.90;;;;;;7344731;32;20095;-61
2022/06/29 00:35:00;;;;;;;4.43;1.20;;;14.60;99.90;;;;;;7334180;32;20195;-61
2022/06/29 00:39:02;;;;;;;2.65;1.12;;;14.60;99.90;;;;;;7344566;32;20363;-62
2022/06/29 00:43:04;;;;;;;3.60;1.25;;;14.60;99.90;;;;;;7341279;32;20723;-61
2022/06/29 00:47:06;;;;;;;6.15;1.33;;;14.60;99.90;;;;;;7338177;32;20195;-60
2022/06/29 00:51:11;;;;;;;2.58;1.48;;;14.70;99.90;;;;;;7337929;32;20201;-61
2022/06/29 00:55:24;;;;;;;4.22;1.80;;;14.80;99.90;;;;;;7341395;32;20107;-61
2022/06/29 00:59:27;;;;;;;6.70;1.23;;;15.00;99.90;;;;;;7341214;32;20175;-61
2022/06/29 01:03:30;;;;;;;4.60;1.50;;;15.10;99.90;;;;;;7340159;32;20127;-61
2022/06/29 01:07:33;;;;;;;2.97;1.10;;;15.10;99.90;;;;;;7337926;32;20734;-60
2022/06/29 01:11:35;;;;;;;3.60;1.30;;;15.10;99.90;;;;;;7340676;32;20476;-61
2022/06/29 01:15:37;;;;;;;3.05;1.30;;;15.10;99.90;;;;;;7334950;32;20382;-61
2022/06/29 01:19:40;;;;;;;2.53;1.48;;;15.10;99.90;;;;;;7339509;32;20103;-61
2022/06/29 01:23:42;;;;;;;3.72;1.23;;;15.00;99.90;;;;;;7338750;32;20196;-61
2022/06/29 01:27:44;;;;;;;3.42;1.20;;;14.90;99.90;;;;;;7339216;32;20111;-61
2022/06/29 01:31:46;;;;;;;4.70;1.33;;;14.90;99.90;;;;;;7337669;32;20107;-61
2022/06/29 01:35:48;;;;;;;3.70;1.20;;;14.80;99.90;;;;;;7336310;32;20143;-61
2022/06/29 01:39:49;;;;;;;2.95;1.50;;;14.80;99.90;;;;;;7339303;32;20107;-61
2022/06/29 01:43:52;;;;;;;7.22;1.25;;;14.80;99.90;;;;;;7345307;32;20279;-61
2022/06/29 01:47:53;;;;;;;3.75;1.30;;;14.70;99.90;;;;;;7335905;32;20477;-61
2022/06/29 01:51:56;;;;;;;1.90;1.05;;;14.80;99.90;;;;;;7339599;32;20184;-60
2022/06/29 01:55:58;;;;;;;3.75;1.10;;;14.60;99.90;;;;;;7343811;32;20207;-60
2022/06/29 01:59:59;;;;;;;2.95;1.20;;;14.60;99.90;;;;;;7344178;32;20227;-60
2022/06/29 02:04:01;;;;;;;1.50;1.23;;;14.60;99.90;;;;;;7349077;32;20226;-60
2022/06/29 02:08:04;;;;;;;5.30;1.58;;;14.50;99.90;;;;;;7346603;32;20121;-62
2022/06/29 02:12:06;;;;;;;2.08;1.20;;;14.50;99.90;;;;;;7345640;32;20173;-60
2022/06/29 02:16:08;;;;;;;5.47;1.65;;;14.40;99.90;;;;;;7345035;32;20251;-60
2022/06/29 02:20:11;;;;;;;1.62;1.12;;;14.40;99.90;;;;;;7343054;32;20236;-60
2022/06/29 02:24:13;;;;;;;2.72;1.40;;;14.30;99.90;;;;;;7344947;32;20566;-60
2022/06/29 02:28:15;;;;;;;2.35;1.30;;;14.30;99.90;;;;;;7345325;32;20749;-61
2022/06/29 02:36:37;;;;;;;5.37;1.37;;;14.10;99.90;;;;;;7337807;32;20683;-60
2022/06/29 02:40:39;;;;;;;5.18;1.37;;;14.00;99.90;;;;;;7342107;32;20241;-61
2022/06/29 02:44:42;;;;;;;6.70;1.40;;;14.00;99.90;;;;;;7342003;32;20239;-61
2022/06/29 02:48:43;;;;;;;4.72;1.30;;;13.90;99.90;;;;;;7346540;32;20128;-60
2022/06/29 02:52:45;;;;;;;3.55;1.90;;;13.90;99.90;;;;;;7340137;32;20581;-60
2022/06/29 02:56:47;;;;;;;2.47;1.58;;;13.90;99.90;;;;;;7347662;32;20221;-60
2022/06/29 03:00:49;;;;;;;2.97;1.50;;;13.80;99.90;;;;;;7338876;32;20171;-61
2022/06/29 03:04:51;;;;;;;4.22;1.60;;;13.80;99.90;;;;;;7345311;32;20386;-60
2022/06/29 03:08:53;;;;;;;5.35;2.00;;;13.70;99.90;;;;;;7343046;32;20148;-61
2022/06/29 03:12:54;;;;;;;5.75;2.47;;;13.70;99.90;;;;;;7339310;32;20132;-60
2022/06/29 03:16:57;;;;;;;4.53;1.70;;;13.70;99.90;;;;;;7347368;32;20103;-60
2022/06/29 03:20:59;;;;;;;3.15;1.70;;;13.60;99.90;;;;;;7342188;32;20111;-60
2022/06/29 03:25:02;;;;;;;5.60;2.00;;;13.50;99.90;;;;;;7338785;32;20285;-63
2022/06/29 03:29:03;;;;;;;5.10;1.60;;;13.40;99.90;;;;;;7344349;32;20715;-61
2022/06/29 03:33:05;;;;;;;2.83;1.60;;;13.40;99.90;;;;;;7340214;32;20496;-61
2022/06/29 03:37:07;;;;;;;3.03;1.65;;;13.30;99.90;;;;;;7342817;32;20111;-61
2022/06/29 03:41:09;;;;;;;3.47;1.73;;;13.20;99.90;;;;;;7339613;32;20133;-61
2022/06/29 03:45:11;;;;;;;2.53;1.40;;;13.20;99.90;;;;;;7338093;32;20598;-62
2022/06/29 03:49:12;;;;;;;3.30;1.95;;;13.20;99.90;;;;;;7338678;32;20405;-61
2022/06/29 03:53:14;;;;;;;5.93;2.45;;;13.20;99.90;;;;;;7341936;32;20687;-61
2022/06/29 03:57:16;;;;;;;2.58;1.80;;;13.20;99.90;;;;;;7339907;32;20131;-61
2022/06/29 04:01:18;;;;;;;5.18;1.80;;;13.20;99.90;;;;;;7342016;32;20182;-63
2022/06/29 04:05:20;;;;;;;5.10;1.80;;;13.20;99.90;;;;;;7341102;32;20232;-60
2022/06/29 04:09:22;;;;;;;5.35;1.85;;;13.30;99.90;;;;;;7344773;32;20219;-61
2022/06/29 04:13:23;;;;;;;3.80;1.80;;;13.30;99.90;;;;;;7343695;32;20198;-61
2022/06/29 04:17:25;;;;;;;6.43;1.98;;;13.30;99.90;;;;;;7344246;32;20204;-61
2022/06/29 04:21:27;;;;;;;6.32;1.90;;;13.30;99.90;;;;;;7336894;32;20582;-61
2022/06/29 04:25:29;;;;;;;5.18;2.15;;;13.30;99.90;;;;;;7336752;32;20600;-60
2022/06/29 04:29:31;;;;;;;4.10;1.70;;;13.40;99.90;;;;;;7339343;32;20307;-61
2022/06/29 04:33:33;;;;;;;4.40;1.95;;;13.40;99.90;;;;;;7341713;32;20217;-60
2022/06/29 04:37:35;;;;;;;5.10;2.20;;;13.40;99.90;;;;;;7333055;32;20142;-60
2022/06/29 04:41:36;;;;;;;4.35;1.90;;;13.40;99.90;;;;;;7333315;32;20255;-60
2022/06/29 04:49:59;;;;;;;4.82;1.90;;;13.50;99.90;;;;;;7341893;32;20246;-62
2022/06/29 04:54:01;;;;;;;5.15;2.10;;;13.40;99.90;;;;;;7337781;32;20200;-62
2022/06/29 04:58:02;;;;;;;6.95;2.20;;;13.60;99.90;;;;;;7335833;32;20329;-62
2022/06/29 05:02:04;;;;;;;4.10;1.80;;;13.70;99.90;;;;;;7340279;32;20130;-63
2022/06/29 05:06:06;;;;;;;4.70;1.85;;;13.80;99.90;;;;;;7337288;32;20163;-63
2022/06/29 05:10:08;;;;;;;6.65;2.22;;;13.90;99.90;;;;;;7338534;32;20507;-64
2022/06/29 05:14:10;;;;;;;4.85;2.42;;;14.10;99.90;;;;;;7338567;32;20491;-65
2022/06/29 05:18:12;;;;;;;3.37;2.10;;;14.30;99.90;;;;;;7339281;32;20198;-64
2022/06/29 05:22:21;;;;;;;3.85;2.22;;;14.40;99.90;;;;;;7337183;32;20579;-65
2022/06/29 05:26:24;;;;;;;6.50;2.25;;;14.70;99.90;;;;;;7342182;32;20137;-64
2022/06/29 05:30:26;;;;;;;7.28;2.60;;;14.90;99.90;;;;;;7336924;32;20538;-59
2022/06/29 05:34:28;;;;;;;6.47;3.03;;;15.10;99.90;;;;;;7332110;32;20219;-59
2022/06/29 05:38:31;;;;;;;9.15;3.08;;;15.40;99.90;;;;;;7344134;32;20222;-58
2022/06/29 05:42:34;;;;;;;11.60;3.70;;;15.70;99.90;;;;;;7343760;32;20920;-59
2022/06/29 05:46:36;;;;;;;9.95;3.05;;;16.00;99.90;;;;;;7344619;32;20425;-59
2022/06/29 05:50:38;;;;;;;8.38;3.10;;;16.10;99.90;;;;;;7349967;32;20128;-59
2022/06/29 05:54:40;;;;;;;11.57;3.10;;;16.20;99.90;;;;;;7343847;32;20583;-65
2022/06/29 05:58:41;;;;;;;7.55;4.00;;;16.30;99.90;;;;;;7343741;32;20242;-64
2022/06/29 06:02:43;;;;;;;4.10;2.28;;;16.40;99.90;;;;;;7344760;32;20250;-61
2022/06/29 06:06:45;;;;;;;4.78;2.15;;;16.40;99.90;;;;;;7338118;32;20517;-64
2022/06/29 06:10:47;;;;;;;10.30;7.53;;;16.50;99.90;;;;;;7329451;32;20209;-64
2022/06/29 06:14:48;;;;;;;4.47;2.40;;;16.50;99.90;;;;;;7341613;32;21043;-65
2022/06/29 06:18:50;;;;;;;4.90;2.20;;;16.60;99.90;;;;;;7335840;32;20123;-65
2022/06/29 06:22:52;;;;;;;6.18;2.15;;;16.60;99.90;;;;;;7341047;32;20949;-65
2022/06/29 06:26:54;;;;;;;3.53;1.98;;;16.70;99.90;;;;;;7345530;32;20515;-65
2022/06/29 06:30:56;;;;;;;3.53;1.95;;;16.90;99.90;;;;;;7343472;32;20114;-65
2022/06/29 06:34:58;;;;;;;4.03;1.85;;;17.10;99.90;;;;;;7338066;32;20131;-65
2022/06/29 06:38:59;;;;;;;3.72;1.80;;;17.30;99.90;;;;;;7337375;32;20107;-64
2022/06/29 06:43:02;;;;;;;5.20;1.87;;;17.80;99.90;;;;;;7344406;32;20134;-65
2022/06/29 06:47:03;;;;;;;2.33;1.92;;;18.10;99.90;;;;;;7339115;32;20116;-65
2022/06/29 06:51:05;;;;;;;2.70;1.70;;;18.30;99.90;;;;;;7339899;32;20186;-64
2022/06/29 06:55:08;;;;;;;6.37;2.17;;;18.50;99.90;;;;;;7341594;32;20548;-65
2022/06/29 06:59:09;;;;;;;5.05;1.92;;;18.70;99.90;;;;;;7334829;32;20123;-64
2022/06/29 07:03:11;;;;;;;6.03;1.98;;;18.80;99.90;;;;;;7342320;32;20231;-64
2022/06/29 07:07:14;;;;;;;2.35;1.40;;;18.90;99.90;;;;;;7340013;32;20180;-66
2022/06/29 07:11:16;;;;;;;4.25;1.90;;;19.10;99.90;;;;;;7342917;32;20194;-65
2022/06/29 07:15:17;;;;;;;3.97;1.75;;;19.10;99.90;;;;;;7345114;32;20153;-64
2022/06/29 07:19:19;;;;;;;3.12;1.80;;;19.10;99.90;;;;;;7349873;32;20234;-65
2022/06/29 07:23:21;;;;;;;6.93;2.20;;;19.20;99.90;;;;;;7341236;32;20184;-64
2022/06/29 07:27:23;;;;;;;4.32;1.95;;;19.30;99.90;;;;;;7343468;32;20552;-65
2022/06/29 07:31:25;;;;;;;4.03;1.83;;;19.30;99.90;;;;;;7347741;32;20118;-65
2022/06/29 07:35:26;;;;;;;5.00;3.70;;;19.30;99.90;;;;;;7344642;32;20095;-65
2022/06/29 07:39:31;;;;;;;5.22;2.40;;;19.40;99.90;;;;;;7339796;32;20194;-65
2022/06/29 07:43:46;;;;;;;4.55;2.17;;;19.40;99.90;;;;;;7340026;32;20111;-64
2022/06/29 07:47:49;;;;;;;4.37;1.90;;;19.40;99.90;;;;;;7345117;32;20517;-64
2022/06/29 07:51:53;;;;;;;4.30;1.95;;;19.50;99.90;;;;;;7337179;32;20587;-66
2022/06/29 07:55:55;;;;;;;4.85;2.00;;;19.50;99.90;;;;;;7343626;32;20226;-64
2022/06/29 07:59:57;;;;;;;5.43;2.00;;;19.50;99.90;;;;;;7343457;32;20196;-63
2022/06/29 08:03:58;;;;;;;5.82;2.55;;;19.50;99.90;;;;;;7334360;32;20391;-63
2022/06/29 08:08:01;;;;;;;4.28;1.95;;;19.60;99.90;;;;;;7338223;32;20103;-63
2022/06/29 08:12:03;;;;;;;37.83;28.95;;;19.50;99.90;;;;;;7339964;32;20340;-63
2022/06/29 08:16:06;;;;;;;8.32;4.10;;;19.90;99.90;;;;;;7331557;32;20221;-62
2022/06/29 08:20:09;;;;;;;3.78;2.10;;;19.70;99.90;;;;;;7339830;32;20099;-64
2022/06/29 08:24:11;;;;;;;5.25;2.12;;;19.70;99.90;;;;;;7336917;32;20212;-63
2022/06/29 08:28:13;;;;;;;4.10;2.22;;;19.70;99.90;;;;;;7338282;32;20637;-64
2022/06/29 08:32:15;;;;;;;5.90;2.03;;;19.70;99.90;;;;;;7335837;32;20488;-64
2022/06/29 08:36:17;;;;;;;7.07;2.12;;;19.70;99.90;;;;;;7344832;32;20194;-63
2022/06/29 08:40:46;;;;;;;4.43;2.20;;;19.60;99.90;;;;;;7344297;32;20129;-63
2022/06/29 08:44:51;;;;;;;5.75;1.85;;;19.70;99.90;;;;;;7342489;32;20168;-63
2022/06/29 08:48:53;;;;;;;5.93;1.95;;;19.80;99.90;;;;;;7340040;32;20237;-64
2022/06/29 08:52:58;;;;;;;4.15;1.77;;;19.90;99.90;;;;;;7339360;32;20460;-64
2022/06/29 08:56:59;;;;;;;5.35;1.92;;;19.90;99.90;;;;;;7336720;32;20163;-64
2022/06/29 09:01:01;;;;;;;6.18;2.28;;;20.10;99.90;;;;;;7339967;32;20133;-64
2022/06/29 09:05:04;;;;;;;5.15;2.00;;;20.10;99.90;;;;;;7328994;32;20213;-64
2022/06/29 09:09:06;;;;;;;6.90;2.15;;;20.10;99.90;;;;;;7335629;32;20160;-64
2022/06/29 09:13:08;;;;;;;5.10;2.17;;;20.20;99.90;;;;;;7341056;32;20453;-63
2022/06/29 09:17:11;;;;;;;4.85;2.12;;;20.20;99.90;;;;;;7337398;32;20208;-63
2022/06/29 09:21:13;;;;;;;3.80;2.00;;;20.20;99.90;;;;;;7339156;32;20171;-63
2022/06/29 09:25:26;;;;;;;5.70;2.10;;;20.20;99.90;;;;;;7335757;32;20660;-63
2022/06/29 09:29:30;;;;;;;6.50;2.28;;;20.30;99.90;;;;;;7335310;32;20139;-63
2022/06/29 09:33:32;;;;;;;5.25;1.87;;;20.20;99.90;;;;;;7329833;32;20239;-63
2022/06/29 09:37:34;;;;;;;4.75;2.08;;;20.30;99.90;;;;;;7336055;32;20949;-63
2022/06/29 09:41:36;;;;;;;7.60;2.33;;;20.40;99.90;;;;;;7334070;32;20253;-63
2022/06/29 09:45:38;;;;;;;5.50;2.05;;;20.50;99.90;;;;;;7332774;32;20131;-64
2022/06/29 09:49:40;;;;;;;4.53;1.90;;;20.60;99.90;;;;;;7335789;32;20201;-64
2022/06/29 09:53:45;;;;;;;7.22;2.37;;;20.80;99.90;;;;;;7338251;32;20132;-61
2022/06/29 09:57:49;;;;;;;7.18;2.10;;;21.00;99.90;;;;;;7337403;32;20099;-61
2022/06/29 10:06:16;;;;;;;5.32;2.50;;;21.50;99.90;;;;;;7339816;32;20169;-61
2022/06/29 10:10:20;;;;;;;4.97;1.90;;;22.00;99.90;;;;;;7334488;32;20598;-62
2022/06/29 10:14:43;;;;;;;8.60;1.87;;;22.50;99.90;;;;;;7346140;32;20329;-62
2022/06/29 10:19:22;;;;;;;5.53;1.92;;;22.90;99.90;;;;;;7339574;32;20182;-63
2022/06/29 10:23:47;;;;;;;4.32;1.70;;;23.30;99.90;;;;;;7345577;32;20180;-62
2022/06/29 10:28:09;;;;;;;5.22;1.70;;;23.40;99.90;;;;;;7340070;32;20223;-62
2022/06/29 10:32:14;;;;;;;3.00;1.65;;;23.50;99.90;;;;;;7344671;32;20116;-61
2022/06/29 10:36:17;;;;;;;3.22;1.83;;;23.50;99.90;;;;;;7338735;32;20223;-62
2022/06/29 10:40:25;;;;;;;2.30;1.52;;;23.40;99.90;;;;;;7341792;32;20948;-61
2022/06/29 10:45:06;;;;;;;5.50;1.75;;;23.50;99.90;;;;;;7340190;32;20174;-61
2022/06/29 10:49:19;;;;;;;4.43;2.08;;;23.50;99.90;;;;;;7239000;32;20178;-62
2022/06/29 10:53:21;;;;;;;6.55;1.80;;;23.60;99.90;;;;;;7287558;32;20685;-62
2022/06/29 10:57:22;;;;;;;2.97;1.75;;;23.60;99.90;;;;;;7341193;32;20113;-62
2022/06/29 11:01:24;;;;;;;4.43;1.75;;;23.80;99.90;;;;;;7340715;32;20146;-62
2022/06/29 11:05:26;;;;;;;3.00;1.80;;;24.30;99.90;;;;;;7341601;32;20173;-63
2022/06/29 11:14:05;;;;;;;2.67;1.62;;;25.20;99.90;;;;;;7332871;32;20225;-58
2022/06/29 11:18:16;;;;;;;6.75;2.53;;;25.30;99.90;;;;;;7331151;32;20917;-59
2022/06/29 11:22:18;;;;;;;3.10;1.50;;;25.20;99.90;;;;;;7336746;32;20182;-59
2022/06/29 11:26:23;;;;;;;2.92;1.52;;;24.80;99.90;;;;;;7335878;32;20231;-65
2022/06/29 11:30:26;;;;;;;3.40;1.80;;;24.40;99.90;;;;;;7331698;32;20886;-65
2022/06/29 11:34:27;;;;;;;6.37;1.45;;;24.60;99.90;;;;;;7339541;32;20752;-65
2022/06/29 11:38:29;;;;;;;3.92;1.60;;;24.70;99.90;;;;;;7336964;32;20240;-64
2022/06/29 11:46:55;;;;;;;2.78;1.73;;;24.70;99.90;;;;;;7338031;32;20135;-63
2022/06/29 11:50:59;;;;;;;3.53;2.20;;;25.20;99.90;;;;;;7336826;32;20191;-63
2022/06/29 11:55:01;;;;;;;8.00;2.10;;;25.60;99.90;;;;;;7339766;32;20126;-63
2022/06/29 11:59:06;;;;;;;6.15;2.60;;;25.60;99.90;;;;;;7337243;32;20218;-62
2022/06/29 12:03:08;;;;;;;3.83;2.20;;;25.10;99.90;;;;;;7337301;32;20334;-62
2022/06/29 12:07:22;;;;;;;4.95;2.47;;;25.30;99.90;;;;;;7337453;32;20506;-61
2022/06/29 12:11:24;;;;;;;7.85;2.25;;;25.40;99.90;;;;;;7335235;32;20224;-63
2022/06/29 12:15:26;;;;;;;5.60;2.12;;;26.20;99.90;;;;;;7339883;32;20115;-63
2022/06/29 12:19:28;;;;;;;2.72;1.80;;;25.90;99.90;;;;;;7345060;32;20152;-62
2022/06/29 12:23:31;;;;;;;4.85;2.00;;;26.20;99.90;;;;;;7341208;32;20261;-63
2022/06/29 12:27:36;;;;;;;6.10;2.65;;;26.30;97.90;;;;;;7342221;32;20465;-63
2022/06/29 12:31:38;;;;;;;3.85;1.77;;;26.10;96.20;;;;;;7342197;32;20103;-62
2022/06/29 12:35:40;;;;;;;5.60;1.85;;;25.90;94.80;;;;;;7341012;32;20169;-62
2022/06/29 12:39:41;;;;;;;3.37;1.50;;;25.90;97.90;;;;;;7345354;32;20120;-62
2022/06/29 12:43:43;;;;;;;3.25;1.90;;;25.80;94.40;;;;;;7338523;32;20261;-63
2022/06/29 12:47:46;;;;;;;2.78;1.60;;;25.30;92.30;;;;;;7341462;32;20172;-63
2022/06/29 12:51:48;;;;;;;3.80;1.40;;;25.40;92.20;;;;;;7345503;32;20173;-63
2022/06/29 12:55:50;;;;;;;4.90;1.60;;;25.40;94.20;;;;;;7340698;32;20103;-63
2022/06/29 12:59:51;;;;;;;2.97;1.70;;;25.20;90.90;;;;;;7342596;32;20900;-63
2022/06/29 13:03:53;;;;;;;3.05;1.60;;;25.30;94.80;;;;;;7343841;32;20216;-63
2022/06/29 13:07:55;;;;;;;6.37;2.42;;;25.90;94.80;;;;;;7332629;32;20119;-64
2022/06/29 13:11:58;;;;;;;3.55;1.65;;;25.90;94.80;;;;;;7331786;32;20287;-63
2022/06/29 13:16:00;;;;;;;3.12;1.80;;;26.00;93.30;;;;;;7339311;32;20206;-63
2022/06/29 13:20:05;;;;;;;4.82;1.60;;;26.30;93.40;;;;;;7337893;32;20095;-63
2022/06/29 13:24:07;;;;;;;5.50;2.12;;;26.10;95.10;;;;;;7339031;32;20134;-63
2022/06/29 13:28:09;;;;;;;3.65;1.40;;;25.90;93.80;;;;;;7338648;32;20111;-65
2022/06/29 13:32:11;;;;;;;7.47;2.08;;;25.90;94.50;;;;;;7332279;32;20162;-63
2022/06/29 13:36:13;;;;;;;3.08;1.80;;;26.40;94.70;;;;;;7341668;32;20140;-63
2022/06/29 13:40:15;;;;;;;4.10;1.90;;;27.20;94.10;;;;;;7344930;32;20512;-63
2022/06/29 13:44:16;;;;;;;3.50;1.45;;;28.10;92.80;;;;;;7339468;32;20383;-63
2022/06/29 13:48:19;;;;;;;2.37;1.62;;;29.00;91.60;;;;;;7348408;32;20103;-64
2022/06/29 13:52:21;;;;;;;3.35;1.70;;;29.40;89.40;;;;;;7344715;32;20888;-64
2022/06/29 13:56:22;;;;;;;2.42;1.70;;;29.00;85.00;;;;;;7340145;32;20187;-64
2022/06/29 14:00:24;;;;;;;3.33;1.33;;;28.70;88.50;;;;;;7345270;32;20226;-64
2022/06/29 14:04:26;;;;;;;1.90;1.45;;;28.80;85.20;;;;;;7341220;32;20671;-63
2022/06/29 14:08:28;;;;;;;4.00;1.75;;;29.00;81.30;;;;;;7342088;32;20103;-63
2022/06/29 14:12:50;;;;;;;5.78;1.02;;;28.80;79.40;;;;;;7339423;32;20216;-62
2022/06/29 14:16:52;;;;;;;1.90;1.27;;;28.80;76.10;;;;;;7336837;32;20125;-63
2022/06/29 14:20:56;;;;;;;6.00;1.67;;;28.90;76.50;;;;;;7344089;32;20206;-64
2022/06/29 14:24:58;;;;;;;2.75;1.60;;;28.90;77.90;;;;;;7346645;32;20659;-63
2022/06/29 14:29:00;;;;;;;4.57;1.77;;;29.20;79.60;;;;;;7347686;32;20380;-63
2022/06/29 14:33:02;;;;;;;4.68;2.05;;;29.70;80.10;;;;;;7347257;32;20573;-63
2022/06/29 14:37:04;;;;;;;6.15;1.70;;;29.90;76.40;;;;;;7343017;32;20250;-63
2022/06/29 14:41:06;;;;;;;5.82;1.70;;;29.70;76.90;;;;;;7360871;32;20168;-63
2022/06/29 14:45:08;;;;;;;3.37;1.75;;;30.00;78.90;;;;;;7346002;32;20531;-63
2022/06/29 14:49:11;;;;;;;2.33;1.55;;;29.70;78.50;;;;;;7344859;32;20125;-63
2022/06/29 14:53:13;;;;;;;5.45;1.50;;;29.40;78.40;;;;;;7344454;32;20230;-63
2022/06/29 14:57:15;;;;;;;5.10;1.42;;;29.00;79.80;;;;;;7346675;32;20581;-63
2022/06/29 15:01:18;;;;;;;4.78;1.52;;;28.80;74.40;;;;;;7340598;32;20499;-63
2022/06/29 15:05:20;;;;;;;3.97;1.60;;;28.80;77.00;;;;;;7343287;32;20296;-64
2022/06/29 15:09:22;;;;;;;1.90;1.35;;;28.70;76.80;;;;;;7345990;32;20440;-63
2022/06/29 15:13:26;;;;;;;3.92;1.65;;;28.70;79.10;;;;;;7341433;32;20474;-64
2022/06/29 15:17:27;;;;;;;7.20;1.40;;;28.90;74.10;;;;;;7342031;32;20773;-63
2022/06/29 15:21:30;;;;;;;5.55;1.52;;;28.30;73.00;;;;;;7338251;32;20467;-62
2022/06/29 15:25:35;;;;;;;1.65;1.27;;;28.40;72.40;;;;;;7343771;32;20123;-62
2022/06/29 15:29:37;;;;;;;4.95;1.10;;;28.10;70.10;;;;;;7342434;32;20630;-63
2022/06/29 15:42:20;;;;;;;2.33;1.33;;;27.80;75.90;;;;;;7334573;32;20147;-64
2022/06/29 15:46:21;;;;;;;3.05;1.40;;;27.10;71.80;;;;;;7342142;32;20235;-64
2022/06/29 15:50:23;;;;;;;2.50;1.55;;;26.60;74.50;;;;;;7343304;32;20208;-63
2022/06/29 15:58:45;;;;;;;2.72;1.40;;;26.80;76.90;;;;;;7340250;32;20258;-60
2022/06/29 16:02:47;;;;;;;4.57;1.37;;;27.10;73.70;;;;;;7334523;32;20135;-61
2022/06/29 16:06:49;;;;;;;2.70;1.20;;;27.10;72.70;;;;;;7340974;32;20193;-60
2022/06/29 16:10:51;;;;;;;2.97;1.00;;;26.90;73.00;;;;;;7337318;32;20133;-60
2022/06/29 16:14:53;;;;;;;4.07;1.30;;;27.10;73.30;;;;;;7339843;32;20192;-60
2022/06/29 16:18:56;;;;;;;1.48;1.02;;;26.80;73.50;;;;;;7342312;32;20194;-60
2022/06/29 16:23:15;;;;;;;4.03;1.40;;;26.70;75.80;;;;;;7330872;32;20221;-60
2022/06/29 16:27:17;;;;;;;1.30;1.00;;;26.40;76.50;;;;;;7344941;32;20194;-61
2022/06/29 16:31:19;;;;;;;1.55;0.98;;;26.30;76.90;;;;;;7338309;32;20115;-61
2022/06/29 16:35:21;;;;;;;2.78;1.10;;;26.30;73.80;;;;;;7344286;32;20251;-64
2022/06/29 16:39:23;;;;;;;1.73;1.23;;;26.30;73.20;;;;;;7343219;32;20119;-64
2022/06/29 16:43:25;;;;;;;2.47;1.10;;;26.30;72.50;;;;;;7339657;32;20355;-65
2022/06/29 16:47:30;;;;;;;3.00;1.08;;;26.20;74.50;;;;;;7343049;32;20130;-64
2022/06/29 16:51:32;;;;;;;1.40;1.02;;;26.30;74.10;;;;;;7339795;32;20123;-64
2022/06/29 16:55:51;;;;;;;5.05;1.40;;;26.20;74.50;;;;;;7333931;32;20159;-63
2022/06/29 16:59:53;;;;;;;2.70;1.23;;;26.30;75.00;;;;;;7337103;32;20181;-63
2022/06/29 17:03:55;;;;;;;1.95;1.45;;;26.10;76.00;;;;;;7344906;32;20217;-63
2022/06/29 17:07:57;;;;;;;2.30;1.35;;;26.10;74.00;;;;;;7338464;32;20584;-65
2022/06/29 17:11:58;;;;;;;4.55;2.90;;;26.00;76.50;;;;;;7341116;32;20852;-65
2022/06/29 17:16:01;;;;;;;2.92;1.30;;;26.00;79.50;;;;;;7338623;32;20499;-64
2022/06/29 17:20:03;;;;;;;2.67;1.50;;;26.10;79.60;;;;;;7343032;32;20103;-64
2022/06/29 17:24:05;;;;;;;2.72;1.50;;;25.90;83.90;;;;;;7336879;32;20352;-63
2022/06/29 17:28:07;;;;;;;3.55;1.62;;;26.00;80.10;;;;;;7338940;32;20243;-64
2022/06/29 17:32:10;;;;;;;3.92;1.40;;;26.00;80.70;;;;;;7337150;32;20590;-58
2022/06/29 17:36:14;;;;;;;6.12;1.77;;;26.00;81.20;;;;;;7343911;32;20119;-58
2022/06/29 17:40:16;;;;;;;4.45;1.75;;;26.10;80.90;;;;;;7339054;32;20610;-58
2022/06/29 17:44:18;;;;;;;4.35;1.67;;;26.00;80.90;;;;;;7336866;32;20122;-64
2022/06/29 17:48:20;;;;;;;5.12;1.70;;;26.00;84.20;;;;;;7337884;32;20143;-64
2022/06/29 17:52:22;;;;;;;2.25;1.70;;;26.00;83.00;;;;;;7337185;32;20143;-65
2022/06/29 17:56:23;;;;;;;2.67;1.50;;;26.00;84.50;;;;;;7336723;32;20219;-66
2022/06/29 18:00:25;;;;;;;1.92;1.40;;;25.80;79.60;;;;;;7334337;32;20317;-65
2022/06/29 18:04:27;;;;;;;2.90;1.95;;;25.80;82.90;;;;;;7338182;32;20223;-65
2022/06/29 18:08:29;;;;;;;5.90;1.85;;;25.70;85.40;;;;;;7341509;32;20179;-64
2022/06/29 18:12:31;;;;;;;4.35;1.98;;;25.60;87.40;;;;;;7342763;32;20351;-65
2022/06/29 18:16:35;;;;;;;7.65;5.22;;;25.60;87.40;;;;;;7339584;32;20210;-67
2022/06/29 18:20:37;;;;;;;3.85;1.67;;;25.50;87.80;;;;;;7345384;32;20218;-67
2022/06/29 18:24:39;;;;;;;2.15;1.80;;;25.30;89.10;;;;;;7336346;32;20135;-66
2022/06/29 18:28:41;;;;;;;4.10;2.05;;;25.20;90.10;;;;;;7342344;32;20244;-67
2022/06/29 18:32:43;;;;;;;48.15;43.13;;;25.10;91.20;;;;;;7338233;32;20111;-59
2022/06/29 18:36:46;;;;;;;11.20;6.87;;;25.10;93.50;;;;;;7345647;32;20220;-66
2022/06/29 18:40:48;;;;;;;5.32;1.85;;;25.00;98.20;;;;;;7343861;32;20099;-67
2022/06/29 18:44:50;;;;;;;4.78;1.90;;;24.70;99.90;;;;;;7341932;32;20225;-67
2022/06/29 18:48:52;;;;;;;5.43;1.87;;;24.40;99.90;;;;;;7345007;32;20129;-67
2022/06/29 18:52:55;;;;;;;7.07;3.40;;;24.10;99.90;;;;;;7349933;32;20554;-66
2022/06/29 18:56:56;;;;;;;4.30;2.60;;;23.90;99.90;;;;;;7338697;32;20129;-65
2022/06/29 19:00:58;;;;;;;4.37;2.58;;;23.70;99.90;;;;;;7344434;32;20978;-66
2022/06/29 19:05:00;;;;;;;4.87;3.03;;;23.50;99.90;;;;;;7347657;32;20110;-66
2022/06/29 19:09:03;;;;;;;6.65;3.90;;;23.30;99.90;;;;;;7347553;32;20166;-67
2022/06/29 19:13:06;;;;;;;4.62;3.28;;;23.20;99.90;;;;;;7337573;32;20190;-67
2022/06/29 19:17:08;;;;;;;5.20;3.70;;;23.10;99.90;;;;;;7343054;32;20134;-65
2022/06/29 19:21:10;;;;;;;6.82;4.00;;;23.00;99.90;;;;;;7347124;32;20214;-66
2022/06/29 19:25:12;;;;;;;6.20;3.92;;;22.90;99.90;;;;;;7340469;32;20137;-65
2022/06/29 19:29:14;;;;;;;8.27;4.12;;;22.70;99.90;;;;;;7344763;32;20220;-65
2022/06/29 19:33:16;;;;;;;4.35;3.95;;;22.50;99.90;;;;;;7343058;32;20217;-66
2022/06/29 19:37:18;;;;;;;8.40;4.87;;;22.40;99.90;;;;;;7347712;32;20118;-65
2022/06/29 19:41:20;;;;;;;7.07;4.60;;;22.30;99.90;;;;;;7337756;32;20138;-66
2022/06/29 19:45:22;;;;;;;6.20;4.45;;;22.20;99.90;;;;;;7344303;32;20174;-66
2022/06/29 19:49:24;;;;;;;7.93;3.80;;;22.00;99.90;;;;;;7348126;32;20118;-66
2022/06/29 19:53:25;;;;;;;6.15;4.40;;;21.80;99.90;;;;;;7347417;32;20178;-66
2022/06/29 19:57:27;;;;;;;9.48;3.95;;;21.70;99.90;;;;;;7346904;32;20199;-67
2022/06/29 20:01:29;;;;;;;9.32;4.47;;;21.60;99.90;;;;;;7346572;32;20190;-66
2022/06/29 20:05:31;;;;;;;8.40;4.45;;;21.40;99.90;;;;;;7341584;32;20183;-64
2022/06/29 20:09:34;;;;;;;7.32;4.78;;;21.20;99.90;;;;;;7344773;32;20191;-65
2022/06/29 20:13:36;;;;;;;9.35;4.40;;;20.90;99.90;;;;;;7344785;32;20252;-64
2022/06/29 20:17:40;;;;;;;11.05;7.62;;;20.70;99.90;;;;;;7342156;32;20629;-64
2022/06/29 20:21:42;;;;;;;8.70;4.97;;;20.50;99.90;;;;;;7336391;32;20340;-65
2022/06/29 20:25:44;;;;;;;7.72;5.30;;;20.30;99.90;;;;;;7335798;32;20189;-63
2022/06/29 20:29:46;;;;;;;9.10;5.60;;;20.00;99.90;;;;;;7343315;32;20262;-64
2022/06/29 20:33:48;;;;;;;8.23;4.90;;;19.80;99.90;;;;;;7341517;32;20801;-64
2022/06/29 20:37:50;;;;;;;8.55;5.95;;;19.70;99.90;;;;;;7341297;32;20199;-64
2022/06/29 20:41:56;;;;;;;10.48;5.97;;;19.60;99.90;;;;;;7340081;32;20131;-63
2022/06/29 20:45:59;;;;;;;6.80;6.10;;;19.40;99.90;;;;;;7341800;32;20876;-64
2022/06/29 20:50:01;;;;;;;13.32;8.75;;;19.30;99.90;;;;;;7344290;32;20894;-63
2022/06/29 20:54:03;;;;;;;8.50;7.30;;;19.20;99.90;;;;;;7331021;32;20192;-64
2022/06/29 20:58:05;;;;;;;11.10;6.30;;;19.10;99.90;;;;;;7334985;32;20130;-63
2022/06/29 21:02:06;;;;;;;11.60;6.22;;;19.00;99.90;;;;;;7338236;32;20386;-64
2022/06/29 21:06:14;;;;;;;11.05;6.57;;;18.80;99.90;;;;;;7337531;32;20704;-63
2022/06/29 21:10:16;;;;;;;7.32;6.62;;;18.70;99.90;;;;;;7341878;32;20241;-64
2022/06/29 21:14:18;;;;;;;7.07;6.32;;;18.60;99.90;;;;;;7340397;32;20123;-64
2022/06/29 21:18:20;;;;;;;8.75;6.97;;;18.50;99.90;;;;;;7339358;32;20125;-62
2022/06/29 21:22:22;;;;;;;8.68;6.87;;;18.40;99.90;;;;;;7336518;32;20560;-61
2022/06/29 21:26:24;;;;;;;11.70;7.20;;;18.20;99.90;;;;;;7337222;32;20115;-61
2022/06/29 21:30:26;;;;;;;8.43;7.57;;;18.20;99.90;;;;;;7344905;32;20330;-62
2022/06/29 21:34:28;;;;;;;8.95;7.70;;;18.10;99.90;;;;;;7338183;32;20515;-61
2022/06/29 21:38:30;;;;;;;8.77;7.87;;;18.00;99.90;;;;;;7329705;32;20214;-61